sensor_id;sensor_type;location;lat;lon;timestamp;P1;durP1;ratioP1;P2;durP2;ratioP2
16862;SDS011;52193;48.216;-1.698;2023-04-21T00:01:37;5.63;;;3.83;;
16862;SDS011;52193;48.216;-1.698;2023-04-21T00:04:04;3.28;;;2.97;;
16862;SDS011;52193;48.216;-1.698;2023-04-21T00:06:32;3.95;;;3.42;;
16862;SDS011;52193;48.216;-1.698;2023-04-21T00:09:00;3.78;;;3.22;;
16862;SDS011;52193;48.216;-1.698;2023-04-21T00:11:29;4.05;;;3.70;;
16862;SDS011;52193;48.216;-1.698;2023-04-21T00:13:56;4.13;;;3.78;;
16862;SDS011;52193;48.216;-1.698;2023-04-21T00:16:23;4.35;;;3.95;;
16862;SDS011;52193;48.216;-1.698;2023-04-21T00:18:50;5.18;;;3.80;;
16862;SDS011;52193;48.216;-1.698;2023-04-21T00:21:17;5.30;;;4.30;;
16862;SDS011;52193;48.216;-1.698;2023-04-21T00:23:43;6.68;;;4.07;;
16862;SDS011;52193;48.216;-1.698;2023-04-21T00:26:15;5.72;;;3.53;;
16862;SDS011;52193;48.216;-1.698;2023-04-21T00:28:42;5.05;;;3.92;;
16862;SDS011;52193;48.216;-1.698;2023-04-21T00:31:09;3.83;;;3.53;;
16862;SDS011;52193;48.216;-1.698;2023-04-21T00:33:36;3.92;;;3.55;;
16862;SDS011;52193;48.216;-1.698;2023-04-21T00:36:03;4.40;;;4.00;;
16862;SDS011;52193;48.216;-1.698;2023-04-21T00:38:30;4.13;;;3.72;;
16862;SDS011;52193;48.216;-1.698;2023-04-21T00:40:57;4.13;;;3.78;;
16862;SDS011;52193;48.216;-1.698;2023-04-21T00:43:25;5.07;;;4.07;;
16862;SDS011;52193;48.216;-1.698;2023-04-21T00:45:52;4.15;;;3.80;;
16862;SDS011;52193;48.216;-1.698;2023-04-21T00:48:19;5.07;;;4.00;;
16862;SDS011;52193;48.216;-1.698;2023-04-21T00:50:46;4.55;;;4.15;;
16862;SDS011;52193;48.216;-1.698;2023-04-21T00:53:14;4.22;;;3.83;;
16862;SDS011;52193;48.216;-1.698;2023-04-21T00:55:41;4.43;;;4.03;;
16862;SDS011;52193;48.216;-1.698;2023-04-21T00:58:08;6.28;;;4.30;;
16862;SDS011;52193;48.216;-1.698;2023-04-21T01:00:37;4.13;;;3.80;;
16862;SDS011;52193;48.216;-1.698;2023-04-21T01:03:04;4.70;;;3.78;;
16862;SDS011;52193;48.216;-1.698;2023-04-21T01:05:32;5.35;;;4.47;;
16862;SDS011;52193;48.216;-1.698;2023-04-21T01:07:59;4.80;;;4.30;;
16862;SDS011;52193;48.216;-1.698;2023-04-21T01:10:27;5.25;;;4.25;;
16862;SDS011;52193;48.216;-1.698;2023-04-21T01:12:54;4.78;;;4.32;;
16862;SDS011;52193;48.216;-1.698;2023-04-21T01:15:21;4.93;;;4.43;;
16862;SDS011;52193;48.216;-1.698;2023-04-21T01:17:49;4.97;;;4.05;;
16862;SDS011;52193;48.216;-1.698;2023-04-21T01:20:18;4.43;;;4.07;;
16862;SDS011;52193;48.216;-1.698;2023-04-21T01:22:46;4.85;;;4.45;;
16862;SDS011;52193;48.216;-1.698;2023-04-21T01:25:15;4.90;;;4.50;;
16862;SDS011;52193;48.216;-1.698;2023-04-21T01:27:43;4.75;;;4.35;;
16862;SDS011;52193;48.216;-1.698;2023-04-21T01:30:10;4.50;;;4.10;;
16862;SDS011;52193;48.216;-1.698;2023-04-21T01:32:37;5.18;;;4.72;;
16862;SDS011;52193;48.216;-1.698;2023-04-21T01:35:04;5.00;;;4.60;;
16862;SDS011;52193;48.216;-1.698;2023-04-21T01:37:32;4.53;;;4.13;;
16862;SDS011;52193;48.216;-1.698;2023-04-21T01:40:02;5.05;;;4.65;;
16862;SDS011;52193;48.216;-1.698;2023-04-21T01:42:30;6.88;;;4.85;;
16862;SDS011;52193;48.216;-1.698;2023-04-21T01:44:58;5.25;;;4.85;;
16862;SDS011;52193;48.216;-1.698;2023-04-21T01:47:25;5.45;;;4.95;;
16862;SDS011;52193;48.216;-1.698;2023-04-21T01:49:53;5.57;;;4.53;;
16862;SDS011;52193;48.216;-1.698;2023-04-21T01:52:20;6.72;;;5.47;;
16862;SDS011;52193;48.216;-1.698;2023-04-21T01:54:47;5.97;;;5.45;;
16862;SDS011;52193;48.216;-1.698;2023-04-21T01:57:15;6.22;;;5.63;;
16862;SDS011;52193;48.216;-1.698;2023-04-21T01:59:42;5.25;;;4.85;;
16862;SDS011;52193;48.216;-1.698;2023-04-21T02:02:09;6.28;;;5.68;;
16862;SDS011;52193;48.216;-1.698;2023-04-21T02:04:36;6.68;;;6.05;;
16862;SDS011;52193;48.216;-1.698;2023-04-21T02:07:03;6.10;;;5.60;;
16862;SDS011;52193;48.216;-1.698;2023-04-21T02:09:30;5.53;;;4.97;;
16862;SDS011;52193;48.216;-1.698;2023-04-21T02:11:57;5.72;;;5.25;;
16862;SDS011;52193;48.216;-1.698;2023-04-21T02:14:27;5.82;;;5.30;;
16862;SDS011;52193;48.216;-1.698;2023-04-21T02:16:54;5.80;;;5.30;;
16862;SDS011;52193;48.216;-1.698;2023-04-21T02:19:21;6.50;;;5.90;;
16862;SDS011;52193;48.216;-1.698;2023-04-21T02:21:48;6.57;;;5.72;;
16862;SDS011;52193;48.216;-1.698;2023-04-21T02:24:15;6.03;;;5.50;;
16862;SDS011;52193;48.216;-1.698;2023-04-21T02:26:42;6.30;;;5.70;;
16862;SDS011;52193;48.216;-1.698;2023-04-21T02:29:09;6.10;;;5.60;;
16862;SDS011;52193;48.216;-1.698;2023-04-21T02:31:37;6.47;;;5.97;;
16862;SDS011;52193;48.216;-1.698;2023-04-21T02:34:04;7.22;;;6.55;;
16862;SDS011;52193;48.216;-1.698;2023-04-21T02:36:31;7.28;;;6.68;;
16862;SDS011;52193;48.216;-1.698;2023-04-21T02:38:58;6.25;;;5.75;;
16862;SDS011;52193;48.216;-1.698;2023-04-21T02:41:25;6.93;;;6.32;;
16862;SDS011;52193;48.216;-1.698;2023-04-21T02:43:52;6.72;;;6.10;;
16862;SDS011;52193;48.216;-1.698;2023-04-21T02:46:18;7.03;;;6.43;;
16862;SDS011;52193;48.216;-1.698;2023-04-21T02:48:47;6.13;;;5.63;;
16862;SDS011;52193;48.216;-1.698;2023-04-21T02:51:14;6.32;;;5.88;;
16862;SDS011;52193;48.216;-1.698;2023-04-21T02:53:41;6.32;;;5.82;;
16862;SDS011;52193;48.216;-1.698;2023-04-21T02:56:08;6.55;;;6.07;;
16862;SDS011;52193;48.216;-1.698;2023-04-21T02:58:35;6.65;;;6.15;;
16862;SDS011;52193;48.216;-1.698;2023-04-21T03:01:02;8.20;;;7.47;;
16862;SDS011;52193;48.216;-1.698;2023-04-21T03:03:30;7.63;;;7.03;;
16862;SDS011;52193;48.216;-1.698;2023-04-21T03:05:59;7.18;;;6.60;;
16862;SDS011;52193;48.216;-1.698;2023-04-21T03:08:27;8.13;;;7.43;;
16862;SDS011;52193;48.216;-1.698;2023-04-21T03:10:54;7.07;;;6.57;;
16862;SDS011;52193;48.216;-1.698;2023-04-21T03:13:21;7.65;;;7.05;;
16862;SDS011;52193;48.216;-1.698;2023-04-21T03:15:49;8.30;;;7.63;;
16862;SDS011;52193;48.216;-1.698;2023-04-21T03:18:16;8.35;;;7.75;;
16862;SDS011;52193;48.216;-1.698;2023-04-21T03:20:43;8.18;;;7.57;;
16862;SDS011;52193;48.216;-1.698;2023-04-21T03:23:11;9.77;;;8.98;;
16862;SDS011;52193;48.216;-1.698;2023-04-21T03:25:38;8.45;;;7.95;;
16862;SDS011;52193;48.216;-1.698;2023-04-21T03:28:05;9.15;;;8.40;;
16862;SDS011;52193;48.216;-1.698;2023-04-21T03:30:32;9.32;;;8.63;;
16862;SDS011;52193;48.216;-1.698;2023-04-21T03:32:59;9.40;;;8.70;;
16862;SDS011;52193;48.216;-1.698;2023-04-21T03:35:26;10.13;;;9.32;;
16862;SDS011;52193;48.216;-1.698;2023-04-21T03:37:53;10.18;;;9.48;;
16862;SDS011;52193;48.216;-1.698;2023-04-21T03:40:21;9.20;;;8.45;;
16862;SDS011;52193;48.216;-1.698;2023-04-21T03:42:48;9.43;;;8.73;;
16862;SDS011;52193;48.216;-1.698;2023-04-21T03:45:15;8.88;;;8.27;;
16862;SDS011;52193;48.216;-1.698;2023-04-21T03:47:43;10.80;;;9.82;;
16862;SDS011;52193;48.216;-1.698;2023-04-21T03:50:10;9.98;;;9.20;;
16862;SDS011;52193;48.216;-1.698;2023-04-21T03:52:37;10.52;;;9.73;;
16862;SDS011;52193;48.216;-1.698;2023-04-21T03:55:05;10.20;;;9.35;;
16862;SDS011;52193;48.216;-1.698;2023-04-21T03:57:37;10.70;;;9.82;;
16862;SDS011;52193;48.216;-1.698;2023-04-21T04:00:05;9.30;;;8.60;;
16862;SDS011;52193;48.216;-1.698;2023-04-21T04:02:34;9.73;;;9.00;;
16862;SDS011;52193;48.216;-1.698;2023-04-21T04:05:01;10.95;;;10.25;;
16862;SDS011;52193;48.216;-1.698;2023-04-21T04:07:28;9.50;;;8.77;;
16862;SDS011;52193;48.216;-1.698;2023-04-21T04:09:55;9.52;;;8.93;;
16862;SDS011;52193;48.216;-1.698;2023-04-21T04:12:21;9.20;;;8.60;;
16862;SDS011;52193;48.216;-1.698;2023-04-21T04:14:50;10.27;;;9.63;;
16862;SDS011;52193;48.216;-1.698;2023-04-21T04:17:17;9.75;;;9.05;;
16862;SDS011;52193;48.216;-1.698;2023-04-21T04:19:43;10.35;;;9.55;;
16862;SDS011;52193;48.216;-1.698;2023-04-21T04:22:11;9.65;;;9.05;;
16862;SDS011;52193;48.216;-1.698;2023-04-21T04:24:38;11.68;;;10.88;;
16862;SDS011;52193;48.216;-1.698;2023-04-21T04:27:04;10.13;;;9.35;;
16862;SDS011;52193;48.216;-1.698;2023-04-21T04:29:32;10.20;;;9.50;;
16862;SDS011;52193;48.216;-1.698;2023-04-21T04:32:00;10.90;;;9.95;;
16862;SDS011;52193;48.216;-1.698;2023-04-21T04:34:28;10.20;;;9.50;;
16862;SDS011;52193;48.216;-1.698;2023-04-21T04:36:56;10.23;;;9.50;;
16862;SDS011;52193;48.216;-1.698;2023-04-21T04:39:23;10.75;;;9.93;;
16862;SDS011;52193;48.216;-1.698;2023-04-21T04:41:50;10.90;;;10.10;;
16862;SDS011;52193;48.216;-1.698;2023-04-21T04:44:18;11.30;;;10.50;;
16862;SDS011;52193;48.216;-1.698;2023-04-21T04:46:45;11.40;;;10.60;;
16862;SDS011;52193;48.216;-1.698;2023-04-21T04:49:14;10.68;;;9.93;;
16862;SDS011;52193;48.216;-1.698;2023-04-21T04:51:41;10.48;;;9.68;;
16862;SDS011;52193;48.216;-1.698;2023-04-21T04:54:08;10.82;;;10.02;;
16862;SDS011;52193;48.216;-1.698;2023-04-21T04:56:35;11.13;;;10.32;;
16862;SDS011;52193;48.216;-1.698;2023-04-21T04:59:02;11.90;;;10.98;;
16862;SDS011;52193;48.216;-1.698;2023-04-21T05:01:29;11.77;;;10.77;;
16862;SDS011;52193;48.216;-1.698;2023-04-21T05:03:56;11.30;;;10.32;;
16862;SDS011;52193;48.216;-1.698;2023-04-21T05:06:24;10.35;;;9.65;;
16862;SDS011;52193;48.216;-1.698;2023-04-21T05:08:52;11.70;;;10.90;;
16862;SDS011;52193;48.216;-1.698;2023-04-21T05:11:20;11.52;;;10.68;;
16862;SDS011;52193;48.216;-1.698;2023-04-21T05:13:47;11.70;;;10.90;;
16862;SDS011;52193;48.216;-1.698;2023-04-21T05:16:14;11.48;;;10.70;;
16862;SDS011;52193;48.216;-1.698;2023-04-21T05:18:41;10.82;;;10.02;;
16862;SDS011;52193;48.216;-1.698;2023-04-21T05:21:07;11.10;;;10.27;;
16862;SDS011;52193;48.216;-1.698;2023-04-21T05:23:36;10.00;;;9.40;;
16862;SDS011;52193;48.216;-1.698;2023-04-21T05:26:03;12.10;;;11.05;;
16862;SDS011;52193;48.216;-1.698;2023-04-21T05:28:30;12.35;;;11.40;;
16862;SDS011;52193;48.216;-1.698;2023-04-21T05:30:57;12.25;;;11.43;;
16862;SDS011;52193;48.216;-1.698;2023-04-21T05:33:24;10.88;;;10.15;;
16862;SDS011;52193;48.216;-1.698;2023-04-21T05:35:51;12.27;;;11.48;;
16862;SDS011;52193;48.216;-1.698;2023-04-21T05:38:18;12.50;;;11.60;;
16862;SDS011;52193;48.216;-1.698;2023-04-21T05:40:52;11.25;;;10.45;;
16862;SDS011;52193;48.216;-1.698;2023-04-21T05:43:20;11.07;;;10.25;;
16862;SDS011;52193;48.216;-1.698;2023-04-21T05:45:47;11.52;;;10.73;;
16862;SDS011;52193;48.216;-1.698;2023-04-21T05:48:14;11.77;;;10.85;;
16862;SDS011;52193;48.216;-1.698;2023-04-21T05:50:41;11.90;;;11.02;;
16862;SDS011;52193;48.216;-1.698;2023-04-21T05:53:08;12.00;;;11.10;;
16862;SDS011;52193;48.216;-1.698;2023-04-21T05:55:35;11.80;;;11.00;;
16862;SDS011;52193;48.216;-1.698;2023-04-21T05:58:03;11.70;;;10.90;;
16862;SDS011;52193;48.216;-1.698;2023-04-21T06:00:30;13.15;;;12.15;;
16862;SDS011;52193;48.216;-1.698;2023-04-21T06:02:58;13.10;;;12.20;;
16862;SDS011;52193;48.216;-1.698;2023-04-21T06:05:25;12.27;;;11.48;;
16862;SDS011;52193;48.216;-1.698;2023-04-21T06:07:51;14.15;;;13.15;;
16862;SDS011;52193;48.216;-1.698;2023-04-21T06:10:19;12.70;;;11.90;;
16862;SDS011;52193;48.216;-1.698;2023-04-21T06:12:46;13.90;;;12.90;;
16862;SDS011;52193;48.216;-1.698;2023-04-21T06:15:15;12.70;;;11.90;;
16862;SDS011;52193;48.216;-1.698;2023-04-21T06:17:42;12.93;;;12.07;;
16862;SDS011;52193;48.216;-1.698;2023-04-21T06:20:09;13.20;;;12.20;;
16862;SDS011;52193;48.216;-1.698;2023-04-21T06:22:36;13.10;;;12.23;;
16862;SDS011;52193;48.216;-1.698;2023-04-21T06:25:04;13.57;;;12.77;;
16862;SDS011;52193;48.216;-1.698;2023-04-21T06:27:31;14.30;;;13.27;;
16862;SDS011;52193;48.216;-1.698;2023-04-21T06:29:58;14.25;;;13.25;;
16862;SDS011;52193;48.216;-1.698;2023-04-21T06:32:26;13.85;;;12.95;;
16862;SDS011;52193;48.216;-1.698;2023-04-21T06:34:54;14.77;;;13.80;;
16862;SDS011;52193;48.216;-1.698;2023-04-21T06:37:21;16.27;;;15.10;;
16862;SDS011;52193;48.216;-1.698;2023-04-21T06:39:47;13.55;;;12.75;;
16862;SDS011;52193;48.216;-1.698;2023-04-21T06:42:14;16.77;;;15.45;;
16862;SDS011;52193;48.216;-1.698;2023-04-21T06:44:41;16.40;;;15.25;;
16862;SDS011;52193;48.216;-1.698;2023-04-21T06:47:08;17.08;;;15.95;;
16862;SDS011;52193;48.216;-1.698;2023-04-21T06:49:36;17.02;;;15.82;;
16862;SDS011;52193;48.216;-1.698;2023-04-21T06:52:04;15.60;;;14.52;;
16862;SDS011;52193;48.216;-1.698;2023-04-21T06:54:31;17.15;;;15.95;;
16862;SDS011;52193;48.216;-1.698;2023-04-21T06:56:58;16.90;;;15.52;;
16862;SDS011;52193;48.216;-1.698;2023-04-21T06:59:25;15.93;;;14.82;;
16862;SDS011;52193;48.216;-1.698;2023-04-21T07:02:10;16.27;;;15.07;;
16862;SDS011;52193;48.216;-1.698;2023-04-21T07:04:40;15.50;;;14.40;;
16862;SDS011;52193;48.216;-1.698;2023-04-21T07:09:58;16.17;;;15.10;;
16862;SDS011;52193;48.216;-1.698;2023-04-21T07:12:25;15.98;;;14.88;;
16862;SDS011;52193;48.216;-1.698;2023-04-21T07:14:52;17.33;;;16.10;;
16862;SDS011;52193;48.216;-1.698;2023-04-21T07:17:19;17.05;;;15.90;;
16862;SDS011;52193;48.216;-1.698;2023-04-21T07:19:47;15.85;;;14.75;;
16862;SDS011;52193;48.216;-1.698;2023-04-21T07:22:14;16.38;;;15.27;;
16862;SDS011;52193;48.216;-1.698;2023-04-21T07:24:41;15.25;;;14.25;;
16862;SDS011;52193;48.216;-1.698;2023-04-21T07:27:08;16.55;;;15.45;;
16862;SDS011;52193;48.216;-1.698;2023-04-21T07:32:42;16.40;;;15.30;;
16862;SDS011;52193;48.216;-1.698;2023-04-21T07:35:11;15.25;;;14.27;;
16862;SDS011;52193;48.216;-1.698;2023-04-21T07:37:39;18.40;;;17.00;;
16862;SDS011;52193;48.216;-1.698;2023-04-21T07:40:06;17.30;;;16.10;;
16862;SDS011;52193;48.216;-1.698;2023-04-21T07:42:34;16.40;;;15.20;;
16862;SDS011;52193;48.216;-1.698;2023-04-21T07:45:01;16.85;;;15.65;;
16862;SDS011;52193;48.216;-1.698;2023-04-21T07:47:28;17.10;;;15.88;;
16862;SDS011;52193;48.216;-1.698;2023-04-21T07:49:55;16.23;;;15.13;;
16862;SDS011;52193;48.216;-1.698;2023-04-21T07:52:23;17.08;;;15.88;;
16862;SDS011;52193;48.216;-1.698;2023-04-21T07:54:50;16.38;;;15.10;;
16862;SDS011;52193;48.216;-1.698;2023-04-21T07:57:17;15.45;;;14.40;;
16862;SDS011;52193;48.216;-1.698;2023-04-21T07:59:44;15.43;;;14.43;;
16862;SDS011;52193;48.216;-1.698;2023-04-21T08:02:11;14.82;;;13.82;;
16862;SDS011;52193;48.216;-1.698;2023-04-21T08:04:38;15.88;;;14.75;;
16862;SDS011;52193;48.216;-1.698;2023-04-21T08:07:05;15.63;;;14.52;;
16862;SDS011;52193;48.216;-1.698;2023-04-21T08:09:35;17.38;;;15.98;;
16862;SDS011;52193;48.216;-1.698;2023-04-21T08:12:02;15.90;;;14.80;;
16862;SDS011;52193;48.216;-1.698;2023-04-21T08:14:29;15.27;;;14.23;;
16862;SDS011;52193;48.216;-1.698;2023-04-21T08:16:56;16.25;;;15.05;;
16862;SDS011;52193;48.216;-1.698;2023-04-21T08:19:24;18.05;;;16.65;;
16862;SDS011;52193;48.216;-1.698;2023-04-21T08:21:51;16.13;;;14.82;;
16862;SDS011;52193;48.216;-1.698;2023-04-21T08:24:17;14.07;;;13.20;;
16862;SDS011;52193;48.216;-1.698;2023-04-21T08:26:46;15.23;;;14.23;;
16862;SDS011;52193;48.216;-1.698;2023-04-21T08:29:13;15.73;;;14.63;;
16862;SDS011;52193;48.216;-1.698;2023-04-21T08:31:40;15.00;;;13.90;;
16862;SDS011;52193;48.216;-1.698;2023-04-21T08:34:07;14.52;;;13.52;;
16862;SDS011;52193;48.216;-1.698;2023-04-21T08:36:34;14.90;;;13.80;;
16862;SDS011;52193;48.216;-1.698;2023-04-21T08:39:01;13.95;;;12.93;;
16862;SDS011;52193;48.216;-1.698;2023-04-21T08:41:28;15.50;;;14.50;;
16862;SDS011;52193;48.216;-1.698;2023-04-21T08:43:56;13.68;;;12.77;;
16862;SDS011;52193;48.216;-1.698;2023-04-21T08:46:23;15.38;;;14.23;;
16862;SDS011;52193;48.216;-1.698;2023-04-21T08:48:51;14.32;;;13.43;;
16862;SDS011;52193;48.216;-1.698;2023-04-21T08:51:20;14.05;;;13.15;;
16862;SDS011;52193;48.216;-1.698;2023-04-21T08:53:48;15.18;;;13.98;;
16862;SDS011;52193;48.216;-1.698;2023-04-21T08:56:15;13.30;;;12.32;;
16862;SDS011;52193;48.216;-1.698;2023-04-21T08:58:41;13.73;;;12.82;;
16862;SDS011;52193;48.216;-1.698;2023-04-21T09:01:10;13.65;;;12.75;;
16862;SDS011;52193;48.216;-1.698;2023-04-21T09:03:37;11.93;;;11.20;;
16862;SDS011;52193;48.216;-1.698;2023-04-21T09:06:04;11.43;;;10.57;;
16862;SDS011;52193;48.216;-1.698;2023-04-21T09:08:33;11.88;;;11.18;;
16862;SDS011;52193;48.216;-1.698;2023-04-21T09:11:02;11.90;;;11.10;;
16862;SDS011;52193;48.216;-1.698;2023-04-21T09:13:29;12.00;;;11.20;;
16862;SDS011;52193;48.216;-1.698;2023-04-21T09:15:57;12.02;;;11.23;;
16862;SDS011;52193;48.216;-1.698;2023-04-21T09:18:27;13.55;;;12.55;;
16862;SDS011;52193;48.216;-1.698;2023-04-21T09:21:06;12.48;;;11.52;;
16862;SDS011;52193;48.216;-1.698;2023-04-21T09:23:40;12.70;;;11.85;;
16862;SDS011;52193;48.216;-1.698;2023-04-21T09:26:08;12.57;;;11.68;;
16862;SDS011;52193;48.216;-1.698;2023-04-21T09:28:36;11.68;;;10.88;;
16862;SDS011;52193;48.216;-1.698;2023-04-21T09:31:10;11.65;;;10.93;;
16862;SDS011;52193;48.216;-1.698;2023-04-21T09:33:44;8.88;;;8.38;;
16862;SDS011;52193;48.216;-1.698;2023-04-21T09:36:18;9.82;;;9.23;;
16862;SDS011;52193;48.216;-1.698;2023-04-21T09:38:49;11.18;;;10.38;;
16862;SDS011;52193;48.216;-1.698;2023-04-21T09:41:20;11.10;;;10.40;;
16862;SDS011;52193;48.216;-1.698;2023-04-21T09:43:47;11.48;;;10.57;;
16862;SDS011;52193;48.216;-1.698;2023-04-21T09:46:15;10.98;;;10.27;;
16862;SDS011;52193;48.216;-1.698;2023-04-21T09:48:44;11.23;;;10.52;;
16862;SDS011;52193;48.216;-1.698;2023-04-21T09:51:12;9.38;;;8.85;;
16862;SDS011;52193;48.216;-1.698;2023-04-21T09:53:40;9.75;;;9.15;;
16862;SDS011;52193;48.216;-1.698;2023-04-21T09:56:10;10.45;;;9.52;;
16862;SDS011;52193;48.216;-1.698;2023-04-21T09:58:39;11.35;;;10.55;;
16862;SDS011;52193;48.216;-1.698;2023-04-21T10:01:13;11.00;;;10.30;;
16862;SDS011;52193;48.216;-1.698;2023-04-21T10:03:41;10.15;;;9.55;;
16862;SDS011;52193;48.216;-1.698;2023-04-21T10:06:12;12.65;;;11.75;;
16862;SDS011;52193;48.216;-1.698;2023-04-21T10:08:40;12.93;;;12.13;;
16862;SDS011;52193;48.216;-1.698;2023-04-21T10:11:08;10.75;;;10.15;;
16862;SDS011;52193;48.216;-1.698;2023-04-21T10:13:36;12.82;;;12.02;;
16862;SDS011;52193;48.216;-1.698;2023-04-21T10:16:05;14.80;;;13.63;;
16862;SDS011;52193;48.216;-1.698;2023-04-21T10:18:33;12.30;;;11.50;;
16862;SDS011;52193;48.216;-1.698;2023-04-21T10:21:05;13.20;;;12.30;;
16862;SDS011;52193;48.216;-1.698;2023-04-21T10:23:36;14.75;;;13.75;;
16862;SDS011;52193;48.216;-1.698;2023-04-21T10:26:05;13.38;;;12.50;;
16862;SDS011;52193;48.216;-1.698;2023-04-21T10:31:25;12.85;;;11.85;;
16862;SDS011;52193;48.216;-1.698;2023-04-21T10:34:11;14.57;;;13.38;;
16862;SDS011;52193;48.216;-1.698;2023-04-21T10:36:47;11.77;;;10.90;;
16862;SDS011;52193;48.216;-1.698;2023-04-21T10:39:32;11.90;;;11.18;;
16862;SDS011;52193;48.216;-1.698;2023-04-21T10:44:50;12.85;;;12.05;;
16862;SDS011;52193;48.216;-1.698;2023-04-21T10:47:27;12.43;;;11.63;;
16862;SDS011;52193;48.216;-1.698;2023-04-21T10:49:57;12.15;;;11.27;;
16862;SDS011;52193;48.216;-1.698;2023-04-21T10:52:36;11.23;;;10.43;;
16862;SDS011;52193;48.216;-1.698;2023-04-21T10:55:04;11.10;;;10.40;;
16862;SDS011;52193;48.216;-1.698;2023-04-21T10:57:34;10.82;;;9.95;;
16862;SDS011;52193;48.216;-1.698;2023-04-21T11:00:02;9.88;;;9.27;;
16862;SDS011;52193;48.216;-1.698;2023-04-21T11:02:31;9.18;;;8.68;;
16862;SDS011;52193;48.216;-1.698;2023-04-21T11:04:59;9.15;;;8.65;;
16862;SDS011;52193;48.216;-1.698;2023-04-21T11:07:27;11.82;;;11.13;;
16862;SDS011;52193;48.216;-1.698;2023-04-21T11:09:57;11.60;;;10.80;;
16862;SDS011;52193;48.216;-1.698;2023-04-21T11:12:28;10.05;;;9.35;;
16862;SDS011;52193;48.216;-1.698;2023-04-21T11:14:56;10.93;;;10.23;;
16862;SDS011;52193;48.216;-1.698;2023-04-21T11:17:24;9.45;;;8.85;;
16862;SDS011;52193;48.216;-1.698;2023-04-21T11:19:51;10.57;;;9.88;;
16862;SDS011;52193;48.216;-1.698;2023-04-21T11:22:20;10.65;;;9.98;;
16862;SDS011;52193;48.216;-1.698;2023-04-21T11:24:49;11.10;;;10.25;;
16862;SDS011;52193;48.216;-1.698;2023-04-21T11:27:19;11.30;;;10.60;;
16862;SDS011;52193;48.216;-1.698;2023-04-21T11:29:47;10.55;;;9.95;;
16862;SDS011;52193;48.216;-1.698;2023-04-21T11:32:16;11.23;;;10.52;;
16862;SDS011;52193;48.216;-1.698;2023-04-21T11:34:44;9.70;;;9.13;;
16862;SDS011;52193;48.216;-1.698;2023-04-21T11:37:13;10.10;;;9.45;;
16862;SDS011;52193;48.216;-1.698;2023-04-21T11:39:41;10.70;;;10.05;;
16862;SDS011;52193;48.216;-1.698;2023-04-21T11:42:08;9.88;;;9.27;;
16862;SDS011;52193;48.216;-1.698;2023-04-21T11:44:38;10.27;;;9.68;;
16862;SDS011;52193;48.216;-1.698;2023-04-21T11:47:12;10.30;;;9.63;;
16862;SDS011;52193;48.216;-1.698;2023-04-21T11:49:47;10.35;;;9.75;;
16862;SDS011;52193;48.216;-1.698;2023-04-21T11:52:19;9.98;;;9.38;;
16862;SDS011;52193;48.216;-1.698;2023-04-21T11:54:47;8.82;;;8.32;;
16862;SDS011;52193;48.216;-1.698;2023-04-21T11:57:16;8.75;;;8.20;;
16862;SDS011;52193;48.216;-1.698;2023-04-21T11:59:45;9.70;;;9.10;;
16862;SDS011;52193;48.216;-1.698;2023-04-21T12:02:13;10.65;;;9.95;;
16862;SDS011;52193;48.216;-1.698;2023-04-21T12:04:55;10.00;;;9.30;;
16862;SDS011;52193;48.216;-1.698;2023-04-21T12:07:28;9.50;;;9.00;;
16862;SDS011;52193;48.216;-1.698;2023-04-21T12:09:55;8.15;;;7.65;;
16862;SDS011;52193;48.216;-1.698;2023-04-21T12:12:22;10.00;;;9.40;;
16862;SDS011;52193;48.216;-1.698;2023-04-21T12:14:51;8.82;;;8.32;;
16862;SDS011;52193;48.216;-1.698;2023-04-21T12:17:18;8.55;;;8.00;;
16862;SDS011;52193;48.216;-1.698;2023-04-21T12:19:46;7.93;;;7.43;;
16862;SDS011;52193;48.216;-1.698;2023-04-21T12:22:13;8.73;;;8.00;;
16862;SDS011;52193;48.216;-1.698;2023-04-21T12:24:42;7.90;;;7.45;;
16862;SDS011;52193;48.216;-1.698;2023-04-21T12:27:09;7.55;;;7.07;;
16862;SDS011;52193;48.216;-1.698;2023-04-21T12:29:37;8.80;;;8.30;;
16862;SDS011;52193;48.216;-1.698;2023-04-21T12:32:06;8.63;;;8.13;;
16862;SDS011;52193;48.216;-1.698;2023-04-21T12:34:33;8.85;;;8.25;;
16862;SDS011;52193;48.216;-1.698;2023-04-21T12:37:00;7.63;;;7.20;;
16862;SDS011;52193;48.216;-1.698;2023-04-21T12:39:28;8.25;;;7.80;;
16862;SDS011;52193;48.216;-1.698;2023-04-21T12:41:55;9.38;;;8.85;;
16862;SDS011;52193;48.216;-1.698;2023-04-21T12:44:22;8.90;;;8.35;;
16862;SDS011;52193;48.216;-1.698;2023-04-21T12:46:50;7.57;;;7.18;;
16862;SDS011;52193;48.216;-1.698;2023-04-21T12:49:18;7.15;;;6.75;;
16862;SDS011;52193;48.216;-1.698;2023-04-21T12:51:45;7.32;;;6.93;;
16862;SDS011;52193;48.216;-1.698;2023-04-21T12:54:12;7.50;;;7.10;;
16862;SDS011;52193;48.216;-1.698;2023-04-21T12:56:40;8.32;;;7.82;;
16862;SDS011;52193;48.216;-1.698;2023-04-21T12:59:07;7.65;;;7.18;;
16862;SDS011;52193;48.216;-1.698;2023-04-21T13:01:35;7.35;;;6.88;;
16862;SDS011;52193;48.216;-1.698;2023-04-21T13:04:03;6.47;;;6.07;;
16862;SDS011;52193;48.216;-1.698;2023-04-21T13:06:32;7.82;;;7.43;;
16862;SDS011;52193;48.216;-1.698;2023-04-21T13:08:59;9.27;;;8.68;;
16862;SDS011;52193;48.216;-1.698;2023-04-21T13:11:26;8.07;;;7.60;;
16862;SDS011;52193;48.216;-1.698;2023-04-21T13:13:53;8.50;;;8.00;;
16862;SDS011;52193;48.216;-1.698;2023-04-21T13:16:20;8.57;;;8.07;;
16862;SDS011;52193;48.216;-1.698;2023-04-21T13:18:47;8.93;;;8.18;;
16862;SDS011;52193;48.216;-1.698;2023-04-21T13:21:13;7.10;;;6.70;;
16862;SDS011;52193;48.216;-1.698;2023-04-21T13:23:42;6.97;;;6.47;;
16862;SDS011;52193;48.216;-1.698;2023-04-21T13:26:09;7.45;;;7.05;;
16862;SDS011;52193;48.216;-1.698;2023-04-21T13:28:36;7.50;;;7.00;;
16862;SDS011;52193;48.216;-1.698;2023-04-21T13:31:03;6.97;;;6.57;;
16862;SDS011;52193;48.216;-1.698;2023-04-21T13:33:31;7.07;;;6.68;;
16862;SDS011;52193;48.216;-1.698;2023-04-21T13:35:59;6.70;;;6.38;;
16862;SDS011;52193;48.216;-1.698;2023-04-21T13:38:27;7.50;;;7.10;;
16862;SDS011;52193;48.216;-1.698;2023-04-21T13:40:55;7.60;;;7.20;;
16862;SDS011;52193;48.216;-1.698;2023-04-21T13:43:22;7.80;;;7.30;;
16862;SDS011;52193;48.216;-1.698;2023-04-21T13:45:49;7.45;;;6.95;;
16862;SDS011;52193;48.216;-1.698;2023-04-21T13:48:17;5.75;;;5.35;;
16862;SDS011;52193;48.216;-1.698;2023-04-21T13:50:46;5.22;;;4.93;;
16862;SDS011;52193;48.216;-1.698;2023-04-21T13:53:13;7.30;;;6.72;;
16862;SDS011;52193;48.216;-1.698;2023-04-21T13:55:40;6.53;;;6.18;;
16862;SDS011;52193;48.216;-1.698;2023-04-21T13:58:09;7.05;;;6.65;;
16862;SDS011;52193;48.216;-1.698;2023-04-21T14:00:36;6.13;;;5.82;;
16862;SDS011;52193;48.216;-1.698;2023-04-21T14:03:03;6.28;;;5.97;;
16862;SDS011;52193;48.216;-1.698;2023-04-21T14:05:30;6.90;;;6.50;;
16862;SDS011;52193;48.216;-1.698;2023-04-21T14:07:58;6.18;;;5.85;;
16862;SDS011;52193;48.216;-1.698;2023-04-21T14:10:25;7.40;;;6.82;;
16862;SDS011;52193;48.216;-1.698;2023-04-21T14:12:52;5.72;;;5.35;;
16862;SDS011;52193;48.216;-1.698;2023-04-21T14:15:21;7.18;;;6.78;;
16862;SDS011;52193;48.216;-1.698;2023-04-21T14:17:48;6.53;;;6.10;;
16862;SDS011;52193;48.216;-1.698;2023-04-21T14:20:15;6.70;;;6.20;;
16862;SDS011;52193;48.216;-1.698;2023-04-21T14:22:41;5.78;;;5.47;;
16862;SDS011;52193;48.216;-1.698;2023-04-21T14:25:08;5.78;;;5.47;;
16862;SDS011;52193;48.216;-1.698;2023-04-21T14:27:35;5.18;;;4.88;;
16862;SDS011;52193;48.216;-1.698;2023-04-21T14:30:03;5.05;;;4.75;;
16862;SDS011;52193;48.216;-1.698;2023-04-21T14:32:32;4.53;;;4.32;;
16862;SDS011;52193;48.216;-1.698;2023-04-21T14:34:59;5.13;;;4.82;;
16862;SDS011;52193;48.216;-1.698;2023-04-21T14:37:27;5.13;;;4.82;;
16862;SDS011;52193;48.216;-1.698;2023-04-21T14:39:54;4.43;;;4.20;;